Time;durP1;ratioP1;P1;durP2;ratioP2;P2;SDS_P1;SDS_P2;PMS_P1;PMS_P2;Temp;Humidity;BMP_temperature;BMP_pressure;BME280_temperature;BME280_humidity;BME280_pressure;Samples;Min_cycle;Max_cycle;Signal;HPM_P1;HPM_P2
2021/08/09 00:02:06;;;;;;;2.70;2.50;;;;;;;19.89;100.00;96604.41;5012531;28;20559;-58
2021/08/09 00:04:39;;;;;;;3.15;2.60;;;;;;;20.09;100.00;96596.41;5017301;28;20080;-58
2021/08/09 00:07:08;;;;;;;8.93;2.70;;;;;;;21.21;100.00;96601.13;5012926;28;20072;-58
2021/08/09 00:09:37;;;;;;;2.88;2.40;;;;;;;21.67;100.00;96592.16;5008169;28;20469;-56
2021/08/09 00:12:06;;;;;;;4.18;2.25;;;;;;;21.61;100.00;96601.09;5016569;28;20069;-55
2021/08/09 00:14:38;;;;;;;4.05;2.50;;;;;;;21.91;100.00;96597.88;5007956;28;20073;-54
2021/08/09 00:17:07;;;;;;;3.05;2.30;;;;;;;21.77;100.00;96592.56;5008679;28;20464;-57
2021/08/09 00:19:37;;;;;;;4.68;2.20;;;;;;;21.94;100.00;96584.03;5015217;28;20077;-59
2021/08/09 00:22:06;;;;;;;4.35;2.72;;;;;;;21.54;100.00;96593.06;5000518;28;20088;-59
2021/08/09 00:24:34;;;;;;;2.70;2.28;;;;;;;21.38;100.00;96593.50;5005874;28;20065;-53
2021/08/09 00:27:03;;;;;;;2.47;2.28;;;;;;;21.44;100.00;96589.13;5011492;28;20073;-59
2021/08/09 00:29:32;;;;;;;4.07;2.10;;;;;;;21.72;100.00;96595.06;5006328;28;20088;-55
2021/08/09 00:32:00;;;;;;;3.35;2.30;;;;;;;21.74;100.00;96598.34;5012741;28;21339;-59
2021/08/09 00:34:29;;;;;;;3.72;2.25;;;;;;;21.37;100.00;96588.31;5003685;28;20122;-59
2021/08/09 00:36:59;;;;;;;6.68;2.30;;;;;;;21.17;100.00;96591.84;5010549;28;20053;-58
2021/08/09 00:39:27;;;;;;;3.92;2.13;;;;;;;21.70;100.00;96593.63;5011995;28;20543;-59
2021/08/09 00:41:56;;;;;;;3.47;2.30;;;;;;;21.32;100.00;96594.28;5005230;28;20073;-59
2021/08/09 00:44:24;;;;;;;3.55;2.40;;;;;;;21.44;100.00;96595.34;4997132;28;20069;-58
2021/08/09 00:46:53;;;;;;;5.15;2.42;;;;;;;21.34;100.00;96592.28;5008154;28;20090;-58
2021/08/09 00:49:21;;;;;;;2.47;2.20;;;;;;;21.10;100.00;96594.53;5009337;28;20089;-59
2021/08/09 00:51:51;;;;;;;3.13;2.60;;;;;;;21.21;100.00;96594.94;5013618;28;20073;-57
2021/08/09 00:54:39;;;;;;;6.20;2.67;;;;;;;21.33;100.00;96596.78;5004327;28;20393;-58
2021/08/09 00:57:08;;;;;;;4.00;2.50;;;;;;;21.35;100.00;96596.59;5007334;28;20113;-57
2021/08/09 00:59:37;;;;;;;4.80;2.22;;;;;;;20.77;100.00;96585.66;5009827;28;20080;-58
2021/08/09 01:02:05;;;;;;;4.32;2.20;;;;;;;20.00;100.00;96592.28;5014567;28;20081;-58
2021/08/09 01:04:33;;;;;;;3.33;2.35;;;;;;;19.99;100.00;96588.75;5003853;28;20097;-58
2021/08/09 01:07:03;;;;;;;3.45;2.60;;;;;;;19.75;100.00;96587.47;5004461;28;20061;-59
2021/08/09 01:09:35;;;;;;;3.50;2.17;;;;;;;20.87;100.00;96583.41;5013232;28;20061;-53
2021/08/09 01:12:11;;;;;;;2.70;2.20;;;;;;;21.19;100.00;96586.25;5005957;28;20046;-54
2021/08/09 01:14:50;;;;;;;3.95;2.15;;;;;;;21.31;100.00;96590.78;5006795;28;20076;-57
2021/08/09 01:17:19;;;;;;;4.65;2.45;;;;;;;21.27;100.00;96588.75;5007735;28;20440;-57
2021/08/09 01:20:01;;;;;;;2.80;2.45;;;;;;;20.49;100.00;96586.63;5010344;28;20078;-57
2021/08/09 01:22:53;;;;;;;3.05;2.63;;;;;;;19.51;100.00;96585.22;5001194;28;20049;-58
2021/08/09 01:25:26;;;;;;;4.95;2.85;;;;;;;19.83;100.00;96578.44;5006362;28;20093;-59
2021/08/09 01:27:56;;;;;;;2.70;2.25;;;;;;;20.13;100.00;96578.91;5004343;28;20184;-57
2021/08/09 01:30:25;;;;;;;2.83;2.53;;;;;;;20.69;100.00;96591.25;5011470;28;20073;-55
2021/08/09 01:32:54;;;;;;;4.88;2.28;;;;;;;21.11;100.00;96587.31;5006256;28;20066;-59
2021/08/09 01:35:26;;;;;;;4.00;2.72;;;;;;;20.19;100.00;96588.00;5001474;28;20081;-57
2021/08/09 01:37:57;;;;;;;3.28;2.67;;;;;;;19.97;100.00;96576.63;5013282;28;20081;-60
2021/08/09 01:40:26;;;;;;;5.20;2.55;;;;;;;20.45;100.00;96574.69;5005176;28;20065;-58
2021/08/09 01:42:56;;;;;;;3.15;2.53;;;;;;;20.48;100.00;96574.28;5007699;28;20080;-58
2021/08/09 01:45:25;;;;;;;3.85;2.30;;;;;;;20.81;100.00;96581.53;5002809;28;20076;-57
2021/08/09 01:47:54;;;;;;;3.13;2.38;;;;;;;20.83;100.00;96584.84;5015731;28;20484;-56
2021/08/09 01:50:23;;;;;;;2.42;2.22;;;;;;;20.78;100.00;96584.63;5005256;28;20068;-59
2021/08/09 01:52:52;;;;;;;2.90;2.47;;;;;;;20.94;100.00;96581.53;5011716;28;20074;-58
2021/08/09 01:55:22;;;;;;;3.50;2.35;;;;;;;20.69;100.00;96588.56;5018408;28;20034;-56
2021/08/09 01:57:50;;;;;;;5.60;2.47;;;;;;;20.93;100.00;96590.63;5003289;28;20066;-58
2021/08/09 02:00:20;;;;;;;6.22;2.60;;;;;;;21.07;100.00;96586.06;5002999;28;20077;-57
2021/08/09 02:02:54;;;;;;;5.50;2.30;;;;;;;21.15;100.00;96577.81;4996171;28;20521;-58
2021/08/09 02:05:25;;;;;;;3.25;2.55;;;;;;;20.07;100.00;96575.22;4978372;28;20079;-57
2021/08/09 02:07:55;;;;;;;3.85;2.58;;;;;;;19.40;100.00;96575.91;4987807;28;20077;-56
2021/08/09 02:10:25;;;;;;;4.38;2.60;;;;;;;19.46;100.00;96580.47;5006719;28;20061;-53
2021/08/09 02:12:56;;;;;;;4.43;2.28;;;;;;;20.62;100.00;96575.97;5004624;28;20077;-57
2021/08/09 02:15:31;;;;;;;4.15;2.70;;;;;;;20.85;100.00;96574.72;5002665;28;20050;-58
2021/08/09 02:18:06;;;;;;;8.95;2.83;;;;;;;20.78;100.00;96585.44;5004996;28;20524;-58
2021/08/09 02:20:37;;;;;;;4.63;2.50;;;;;;;20.66;100.00;96581.75;5008340;28;20088;-58
2021/08/09 02:23:10;;;;;;;3.75;2.50;;;;;;;20.27;100.00;96579.81;5006797;28;20088;-57
2021/08/09 02:25:41;;;;;;;6.13;2.78;;;;;;;19.95;100.00;96576.00;5006026;28;20384;-53
2021/08/09 02:28:15;;;;;;;4.97;2.63;;;;;;;20.32;100.00;96567.44;4995672;28;20147;-56
2021/08/09 02:30:47;;;;;;;2.90;2.20;;;;;;;20.16;100.00;96570.50;5000254;28;20073;-58
2021/08/09 02:33:17;;;;;;;2.88;2.50;;;;;;;19.96;100.00;96566.94;5007434;28;20523;-57
2021/08/09 02:35:45;;;;;;;4.93;2.80;;;;;;;20.78;100.00;96566.69;5004180;28;20884;-54
2021/08/09 02:38:14;;;;;;;5.85;2.50;;;;;;;20.77;100.00;96565.03;5006524;28;20074;-59
2021/08/09 02:40:43;;;;;;;3.85;2.60;;;;;;;20.48;100.00;96566.25;5007762;28;20108;-58
2021/08/09 02:43:13;;;;;;;9.77;2.70;;;;;;;20.14;100.00;96569.88;5004457;28;20070;-56
2021/08/09 02:45:42;;;;;;;7.30;2.47;;;;;;;20.27;100.00;96566.41;5007447;28;20422;-55
2021/08/09 02:48:15;;;;;;;7.00;2.65;;;;;;;20.73;100.00;96571.03;5009297;28;20076;-58
2021/08/09 02:50:45;;;;;;;4.22;2.58;;;;;;;20.53;100.00;96569.16;5004615;28;20076;-54
2021/08/09 02:53:17;;;;;;;4.35;2.40;;;;;;;20.46;100.00;96564.78;5005933;28;20084;-54
2021/08/09 02:55:47;;;;;;;3.88;2.40;;;;;;;20.76;100.00;96573.31;5008576;28;20084;-56
2021/08/09 02:58:16;;;;;;;4.07;2.20;;;;;;;20.71;100.00;96568.53;5004206;28;20061;-54
2021/08/09 03:00:45;;;;;;;5.60;2.45;;;;;;;20.58;100.00;96572.06;5005797;28;20037;-57
2021/08/09 03:03:17;;;;;;;3.35;2.63;;;;;;;20.66;100.00;96568.34;5004272;28;20069;-53
2021/08/09 03:05:46;;;;;;;4.07;2.72;;;;;;;20.53;100.00;96571.84;5004583;28;20536;-55
2021/08/09 03:08:15;;;;;;;5.47;2.50;;;;;;;20.06;100.00;96570.91;5001401;28;20089;-57
2021/08/09 03:10:44;;;;;;;5.22;2.72;;;;;;;20.11;100.00;96567.59;5002383;28;20085;-56
2021/08/09 03:13:12;;;;;;;5.65;2.47;;;;;;;20.57;100.00;96569.56;5010245;28;20088;-55
2021/08/09 03:15:42;;;;;;;3.20;2.45;;;;;;;20.09;100.00;96570.47;5008664;28;20081;-56
2021/08/09 03:18:10;;;;;;;4.55;2.58;;;;;;;20.01;100.00;96573.34;5007564;28;20049;-60
2021/08/09 03:20:40;;;;;;;4.30;2.70;;;;;;;20.51;100.00;96573.06;5004915;28;20173;-59
2021/08/09 03:23:09;;;;;;;3.75;2.70;;;;;;;20.61;100.00;96579.69;5008222;28;20089;-56
2021/08/09 03:25:38;;;;;;;6.95;2.85;;;;;;;20.83;100.00;96583.00;5002342;28;20081;-58
2021/08/09 03:28:06;;;;;;;4.60;2.58;;;;;;;21.21;100.00;96582.34;5010750;28;20342;-57
2021/08/09 03:30:35;;;;;;;5.93;2.60;;;;;;;21.23;100.00;96585.66;5008310;28;20073;-57
2021/08/09 03:33:03;;;;;;;2.95;2.40;;;;;;;21.24;100.00;96583.78;5004091;28;20074;-57
2021/08/09 03:35:32;;;;;;;3.97;2.53;;;;;;;21.04;100.00;96586.50;5005030;28;20142;-57
2021/08/09 03:38:02;;;;;;;3.92;2.70;;;;;;;21.21;100.00;96601.13;5008522;28;20074;-54
2021/08/09 03:40:30;;;;;;;3.47;2.67;;;;;;;21.02;100.00;96594.72;5005801;28;20062;-56
2021/08/09 03:42:59;;;;;;;3.40;2.47;;;;;;;21.17;100.00;96593.72;5005775;28;20782;-55
2021/08/09 03:45:27;;;;;;;3.25;2.35;;;;;;;21.50;100.00;96590.97;5005519;28;20084;-60
2021/08/09 03:47:56;;;;;;;7.32;2.65;;;;;;;21.59;100.00;96596.97;5011865;28;20074;-59
2021/08/09 03:50:24;;;;;;;4.22;2.28;;;;;;;21.73;100.00;96609.31;5004383;28;20559;-57
2021/08/09 03:52:54;;;;;;;3.78;2.40;;;;;;;21.67;100.00;96607.47;5004989;28;20464;-57
2021/08/09 03:55:24;;;;;;;3.30;2.33;;;;;;;21.21;100.00;96606.47;5005026;28;20068;-54
2021/08/09 03:57:53;;;;;;;3.38;2.40;;;;;;;21.19;100.00;96602.34;5009064;28;20076;-58
2021/08/09 04:00:22;;;;;;;3.53;2.50;;;;;;;21.03;100.00;96599.06;5003455;28;20070;-58
2021/08/09 04:02:50;;;;;;;10.18;2.92;;;;;;;20.86;100.00;96597.84;5004974;28;20162;-59
2021/08/09 04:05:19;;;;;;;8.98;3.08;;;;;;;21.22;100.00;96599.25;5005188;28;20164;-58
2021/08/09 04:07:48;;;;;;;4.57;2.40;;;;;;;21.21;100.00;96598.44;5006590;28;20078;-58
2021/08/09 04:10:17;;;;;;;9.30;2.60;;;;;;;21.32;100.00;96605.84;5004895;28;20088;-56
2021/08/09 04:12:47;;;;;;;7.30;2.30;;;;;;;21.29;100.00;96597.38;5008897;28;20590;-57
2021/08/09 04:15:16;;;;;;;6.50;2.70;;;;;;;21.62;100.00;96594.69;4999468;28;20069;-56
2021/08/09 04:17:45;;;;;;;3.13;2.28;;;;;;;21.39;100.00;96589.78;4995136;28;20042;-58
2021/08/09 04:20:14;;;;;;;3.92;2.40;;;;;;;20.80;100.00;96593.28;5006835;28;20128;-59
2021/08/09 04:22:43;;;;;;;2.35;2.13;;;;;;;20.91;100.00;96589.19;5015406;28;20089;-57
2021/08/09 04:25:11;;;;;;;6.18;2.40;;;;;;;21.49;100.00;96590.16;5008560;28;20066;-58
2021/08/09 04:27:40;;;;;;;2.55;2.10;;;;;;;21.94;100.00;96587.53;5008336;28;20069;-59
2021/08/09 04:30:11;;;;;;;3.20;2.10;;;;;;;21.96;100.00;96590.84;5011862;28;20080;-57
2021/08/09 04:32:41;;;;;;;2.95;2.10;;;;;;;22.00;100.00;96586.69;5012043;28;20073;-56
2021/08/09 04:35:11;;;;;;;5.10;2.13;;;;;;;22.04;100.00;96587.91;5008973;28;20081;-57
2021/08/09 04:37:40;;;;;;;4.95;2.30;;;;;;;21.70;100.00;96596.31;5006271;28;21507;-58
2021/08/09 04:40:11;;;;;;;4.22;2.47;;;;;;;21.91;100.00;96596.00;5008935;28;20068;-57
2021/08/09 04:42:40;;;;;;;3.00;2.53;;;;;;;22.54;100.00;96607.91;5007029;28;20085;-60
2021/08/09 04:45:11;;;;;;;3.28;2.50;;;;;;;23.68;88.60;96602.25;5002585;28;20093;-59
2021/08/09 04:47:39;;;;;;;7.47;2.40;;;;;;;24.18;80.00;96601.22;5012609;28;20068;-52
2021/08/09 04:50:09;;;;;;;4.95;2.22;;;;;;;23.54;87.70;96597.22;5005101;28;20111;-57
2021/08/09 04:52:40;;;;;;;4.75;2.50;;;;;;;23.38;92.81;96603.97;5005698;28;20486;-56
2021/08/09 04:55:10;;;;;;;4.22;2.20;;;;;;;23.52;89.95;96602.78;5005723;28;20683;-60
2021/08/09 04:57:38;;;;;;;6.73;2.00;;;;;;;23.36;94.22;96604.19;4996359;28;20525;-57
2021/08/09 05:00:08;;;;;;;6.60;2.00;;;;;;;23.73;89.45;96598.88;4991488;28;20065;-58
2021/08/09 05:02:38;;;;;;;4.50;2.08;;;;;;;22.60;100.00;96607.88;4987083;28;20179;-60
2021/08/09 05:05:07;;;;;;;3.75;2.63;;;;;;;23.77;95.23;96597.38;5004461;28;20073;-56
2021/08/09 05:07:36;;;;;;;7.63;2.67;;;;;;;24.52;83.36;96596.25;5010937;28;20074;-58
2021/08/09 05:10:06;;;;;;;3.67;2.80;;;;;;;25.23;74.13;96600.75;5010648;28;20096;-56
2021/08/09 05:12:34;;;;;;;4.18;2.42;;;;;;;24.23;80.46;96598.69;5005254;28;20069;-58
2021/08/09 05:15:04;;;;;;;3.03;1.95;;;;;;;25.19;76.69;96599.59;5011789;28;20069;-60
2021/08/09 05:17:34;;;;;;;3.20;1.90;;;;;;;27.17;58.23;96599.25;5009458;28;20475;-60
2021/08/09 05:20:04;;;;;;;;;;;;;;;27.11;58.46;96605.59;5005611;28;20444;-57
2021/08/09 05:22:33;;;;;;;2.85;1.80;;;;;;;28.55;51.42;96608.44;5005113;28;20336;-61
2021/08/09 05:25:03;;;;;;;3.17;2.00;;;;;;;29.85;46.56;96612.78;5009925;28;20160;-55
2021/08/09 05:27:32;;;;;;;2.88;1.55;;;;;;;29.28;45.76;96615.09;5022538;28;20060;-60
2021/08/09 05:30:00;;;;;;;2.13;1.60;;;;;;;30.46;43.54;96616.63;5005879;28;20058;-59
2021/08/09 05:32:30;;;;;;;2.67;1.50;;;;;;;29.90;44.64;96621.78;5005995;28;20088;-54
2021/08/09 05:34:58;;;;;;;3.00;1.48;;;;;;;29.12;46.64;96620.69;5011809;28;20092;-57
2021/08/09 05:37:31;;;;;;;3.58;1.42;;;;;;;29.06;46.09;96631.50;5009942;28;20088;-54
2021/08/09 05:39:59;;;;;;;3.45;1.60;;;;;;;28.58;52.04;96618.78;5002593;28;20069;-57
2021/08/09 05:42:28;;;;;;;2.75;1.40;;;;;;;30.01;46.77;96619.94;5002033;28;20064;-57
2021/08/09 05:44:56;;;;;;;4.07;1.90;;;;;;;30.41;45.20;96622.03;5009158;28;20069;-52
2021/08/09 05:47:28;;;;;;;7.03;1.85;;;;;;;29.90;45.15;96629.13;5006216;28;20078;-56
2021/08/09 05:49:56;;;;;;;3.30;1.65;;;;;;;27.81;53.96;96627.88;5010303;28;20456;-56
2021/08/09 05:52:25;;;;;;;4.28;1.90;;;;;;;27.36;59.66;96628.81;5005060;28;20077;-54
2021/08/09 05:54:55;;;;;;;4.47;1.80;;;;;;;27.13;61.63;96632.50;5007356;28;20072;-55
2021/08/09 05:57:24;;;;;;;4.30;1.80;;;;;;;25.86;76.99;96628.13;5005536;28;20080;-57
2021/08/09 05:59:52;;;;;;;2.85;1.80;;;;;;;25.64;78.95;96623.31;5007607;28;20064;-57
2021/08/09 06:02:20;;;;;;;4.38;2.00;;;;;;;24.77;86.74;96621.16;5011251;28;20081;-57
2021/08/09 06:04:49;;;;;;;4.00;1.80;;;;;;;26.71;67.60;96620.09;5010054;28;20449;-55
2021/08/09 06:07:18;;;;;;;4.22;1.80;;;;;;;26.63;64.52;96631.31;5005176;28;20076;-57
2021/08/09 06:09:47;;;;;;;3.92;1.75;;;;;;;26.92;64.95;96634.00;5005777;28;20473;-55
2021/08/09 06:12:17;;;;;;;2.45;1.70;;;;;;;25.24;76.96;96639.38;5005745;28;20456;-56
2021/08/09 06:14:45;;;;;;;4.03;1.77;;;;;;;24.71;86.42;96629.34;5004778;28;20073;-55
2021/08/09 06:17:14;;;;;;;7.03;2.20;;;;;;;25.53;74.23;96627.66;5002712;28;20070;-57
2021/08/09 06:19:42;;;;;;;3.38;1.90;;;;;;;26.49;70.58;96619.97;5007544;28;20568;-57
2021/08/09 06:22:11;;;;;;;3.72;1.90;;;;;;;25.39;79.36;96630.81;5005322;28;20061;-57
2021/08/09 06:24:39;;;;;;;2.65;1.80;;;;;;;27.18;66.36;96624.44;5004486;28;20528;-55
2021/08/09 06:27:08;;;;;;;2.65;1.90;;;;;;;27.32;62.86;96614.09;5001557;28;20061;-51
2021/08/09 06:29:37;;;;;;;4.70;1.92;;;;;;;26.07;75.52;96615.84;5007485;28;20534;-57
2021/08/09 06:32:06;;;;;;;4.50;1.95;;;;;;;26.23;70.68;96617.81;5007516;28;20107;-58
2021/08/09 06:34:35;;;;;;;4.85;1.80;;;;;;;26.42;69.57;96613.84;5008858;28;20084;-58
2021/08/09 06:37:03;;;;;;;3.38;2.13;;;;;;;25.73;70.95;96627.25;5003737;28;20072;-60
2021/08/09 06:39:32;;;;;;;4.05;1.67;;;;;;;27.01;67.39;96618.16;5004607;28;20088;-59
2021/08/09 06:42:03;;;;;;;4.45;1.90;;;;;;;25.79;77.65;96631.75;5008787;28;20172;-59
2021/08/09 06:44:32;;;;;;;3.63;1.90;;;;;;;26.38;72.43;96644.31;5008968;28;20095;-55
2021/08/09 06:47:03;;;;;;;4.60;2.03;;;;;;;26.95;68.18;96628.09;5005611;28;20084;-60
2021/08/09 06:49:31;;;;;;;5.57;1.75;;;;;;;27.05;65.71;96630.97;5001139;28;20076;-60
2021/08/09 06:52:00;;;;;;;5.53;1.73;;;;;;;27.17;62.34;96637.16;5005682;28;20073;-58
2021/08/09 06:54:29;;;;;;;2.65;1.88;;;;;;;26.82;67.87;96623.00;5009666;28;20068;-59
2021/08/09 06:56:57;;;;;;;4.63;2.05;;;;;;;26.79;71.60;96618.06;5009262;28;20070;-58
2021/08/09 06:59:25;;;;;;;4.88;1.80;;;;;;;26.79;68.84;96618.88;5002714;28;20092;-59
2021/08/09 07:01:54;;;;;;;3.97;1.90;;;;;;;27.41;64.21;96623.44;5014128;28;20464;-57
2021/08/09 07:04:24;;;;;;;2.85;1.80;;;;;;;27.52;63.11;96624.41;5011992;28;20061;-60
2021/08/09 07:06:53;;;;;;;2.95;1.73;;;;;;;27.47;64.28;96608.09;5004262;28;20073;-59
2021/08/09 07:09:22;;;;;;;2.73;1.93;;;;;;;26.14;73.27;96609.25;5013137;28;20077;-60
2021/08/09 07:11:50;;;;;;;3.20;1.98;;;;;;;27.60;65.13;96600.44;5011154;28;20099;-59
2021/08/09 07:14:20;;;;;;;4.20;2.20;;;;;;;27.53;62.52;96604.38;4996974;28;20081;-60
2021/08/09 07:16:50;;;;;;;4.90;1.90;;;;;;;27.51;61.61;96610.06;5001691;28;20081;-57
2021/08/09 07:19:19;;;;;;;2.63;1.80;;;;;;;25.57;71.90;96620.72;5004303;28;20061;-60
2021/08/09 07:21:49;;;;;;;5.15;2.00;;;;;;;26.59;59.55;96618.50;5003566;28;20077;-60
2021/08/09 07:24:18;;;;;;;2.78;1.77;;;;;;;27.35;58.98;96617.13;5004925;28;20069;-57
2021/08/09 07:26:46;;;;;;;2.88;2.00;;;;;;;27.21;57.97;96621.25;5010716;28;20073;-56
2021/08/09 07:29:15;;;;;;;4.53;1.98;;;;;;;27.49;57.45;96616.78;5005853;28;20072;-59
2021/08/09 07:31:43;;;;;;;3.72;1.80;;;;;;;27.69;52.64;96627.91;5006757;28;20524;-59
2021/08/09 07:34:12;;;;;;;4.25;1.70;;;;;;;27.55;52.34;96627.44;5011277;28;20527;-57
2021/08/09 07:36:41;;;;;;;3.63;1.52;;;;;;;26.47;56.25;96630.22;5000993;28;20081;-60
2021/08/09 07:39:11;;;;;;;2.88;1.60;;;;;;;25.83;54.79;96625.88;4998618;28;20074;-55
2021/08/09 07:41:39;;;;;;;4.35;1.48;;;;;;;25.69;57.78;96620.69;5007195;28;20082;-55
2021/08/09 07:44:07;;;;;;;5.32;1.83;;;;;;;27.07;54.24;96620.72;5012450;28;20077;-52
2021/08/09 07:46:36;;;;;;;3.92;1.95;;;;;;;27.37;55.95;96623.13;5009291;28;20104;-57
2021/08/09 07:49:04;;;;;;;3.35;1.90;;;;;;;28.11;49.33;96622.00;5005570;28;20080;-57
2021/08/09 07:51:33;;;;;;;4.78;1.90;;;;;;;28.08;52.98;96625.22;5009362;28;20078;-54
2021/08/09 07:54:01;;;;;;;3.55;1.80;;;;;;;27.10;59.39;96628.34;5007896;28;20080;-53
2021/08/09 07:56:31;;;;;;;3.13;1.90;;;;;;;27.36;57.45;96637.75;5004275;28;20085;-55
2021/08/09 07:58:59;;;;;;;2.17;1.73;;;;;;;27.59;53.95;96631.31;5010239;28;20073;-54
2021/08/09 08:01:28;;;;;;;3.30;1.60;;;;;;;28.50;50.38;96632.81;5009348;28;20535;-51
2021/08/09 08:03:56;;;;;;;2.92;1.65;;;;;;;26.48;54.48;96628.31;5005023;28;20070;-54
2021/08/09 08:06:25;;;;;;;4.22;1.70;;;;;;;27.09;52.45;96623.19;5006265;28;20075;-54
2021/08/09 08:08:53;;;;;;;2.90;1.63;;;;;;;26.99;53.87;96626.53;5003396;28;20078;-55
2021/08/09 08:11:26;;;;;;;3.65;1.40;;;;;;;27.44;52.72;96620.25;5006820;28;20085;-56
2021/08/09 08:13:56;;;;;;;5.13;1.90;;;;;;;27.80;52.33;96623.50;5008760;28;20515;-54
2021/08/09 08:16:24;;;;;;;4.15;1.60;;;;;;;28.53;48.80;96622.28;5013147;28;20046;-55
2021/08/09 08:18:53;;;;;;;2.97;1.40;;;;;;;28.61;47.25;96621.00;5004277;28;20078;-57
2021/08/09 08:21:22;;;;;;;6.07;1.60;;;;;;;28.51;46.48;96613.56;5008937;28;20070;-55
2021/08/09 08:23:50;;;;;;;2.33;1.60;;;;;;;28.50;49.04;96611.94;5013052;28;20796;-56
2021/08/09 08:26:19;;;;;;;2.95;1.60;;;;;;;27.77;51.50;96622.13;5006784;28;20139;-57
2021/08/09 08:28:47;;;;;;;3.45;1.63;;;;;;;29.11;48.77;96606.25;5006476;28;20089;-56
2021/08/09 08:31:17;;;;;;;2.92;1.52;;;;;;;28.23;50.64;96622.69;5011291;28;20077;-55
2021/08/09 08:33:45;;;;;;;4.13;1.63;;;;;;;29.32;47.93;96621.66;5002759;28;20068;-57
2021/08/09 08:36:14;;;;;;;4.22;1.60;;;;;;;29.84;44.13;96622.03;5002641;28;20468;-56
2021/08/09 08:38:42;;;;;;;2.58;1.58;;;;;;;28.76;44.27;96620.31;5002950;28;20073;-57
2021/08/09 08:41:11;;;;;;;2.40;1.48;;;;;;;29.07;42.92;96619.53;5006676;28;20080;-57
2021/08/09 08:43:39;;;;;;;2.92;1.42;;;;;;;29.36;41.81;96616.53;5007148;28;20128;-56
2021/08/09 08:46:08;;;;;;;4.05;1.55;;;;;;;29.07;42.95;96627.69;5002876;28;20061;-57
2021/08/09 08:48:38;;;;;;;4.20;1.45;;;;;;;28.71;46.07;96623.81;5006537;28;20069;-57
2021/08/09 08:51:21;;;;;;;2.55;1.40;;;;;;;29.41;45.19;96627.41;5002531;28;20065;-59
2021/08/09 08:53:50;;;;;;;2.00;1.38;;;;;;;29.05;43.78;96632.56;5005603;28;20081;-59
2021/08/09 08:56:19;;;;;;;2.70;1.40;;;;;;;30.15;41.28;96625.72;5009075;28;20085;-60
2021/08/09 08:58:47;;;;;;;1.65;1.38;;;;;;;29.96;41.32;96628.88;5010690;28;20089;-56
2021/08/09 09:01:34;;;;;;;3.25;1.50;;;;;;;29.69;42.02;96626.28;5002713;28;20070;-60
2021/08/09 09:04:22;;;;;;;2.72;1.40;;;;;;;29.85;41.90;96623.66;5006137;28;20072;-60
2021/08/09 09:07:00;;;;;;;3.05;1.30;;;;;;;29.51;42.19;96624.78;5009246;28;20065;-57
2021/08/09 09:09:30;;;;;;;4.03;1.52;;;;;;;28.62;43.13;96618.00;5004644;28;20080;-60
2021/08/09 09:12:00;;;;;;;4.30;1.50;;;;;;;29.96;41.69;96623.44;5000141;28;20053;-58
2021/08/09 09:14:30;;;;;;;4.40;1.42;;;;;;;29.36;42.59;96632.03;5009246;28;20073;-60
2021/08/09 09:17:00;;;;;;;2.88;1.50;;;;;;;29.99;40.60;96633.78;5009773;28;20091;-60
2021/08/09 09:19:38;;;;;;;2.83;1.30;;;;;;;29.35;43.19;96628.47;5001930;28;20061;-57
2021/08/09 09:22:07;;;;;;;3.25;1.60;;;;;;;27.92;48.41;96627.75;5007494;28;20077;-56
2021/08/09 09:24:37;;;;;;;5.13;1.60;;;;;;;28.11;45.78;96632.84;5005904;28;20076;-56
2021/08/09 09:27:08;;;;;;;3.65;1.45;;;;;;;29.16;44.51;96624.53;5006524;28;20507;-60
2021/08/09 09:29:38;;;;;;;2.88;1.40;;;;;;;28.69;44.21;96625.13;5001927;28;20556;-60
2021/08/09 09:32:18;;;;;;;3.03;1.50;;;;;;;29.91;41.64;96631.59;5002349;28;20070;-59
2021/08/09 09:34:52;;;;;;;3.40;1.30;;;;;;;30.50;41.45;96631.31;5006340;28;20157;-58
2021/08/09 09:37:28;;;;;;;2.92;1.50;;;;;;;28.24;43.75;96639.78;5001162;28;20062;-57
2021/08/09 09:40:05;;;;;;;3.85;1.50;;;;;;;30.06;41.90;96630.84;5002885;28;20061;-60
2021/08/09 09:42:36;;;;;;;1.83;1.20;;;;;;;29.84;41.82;96636.44;4997107;28;20081;-58
2021/08/09 09:45:19;;;;;;;2.78;1.33;;;;;;;29.60;41.71;96635.22;4991033;28;20137;-59
2021/08/09 09:48:01;;;;;;;2.38;1.60;;;;;;;30.27;40.63;96634.50;5003233;28;20081;-59
2021/08/09 09:50:32;;;;;;;2.58;1.40;;;;;;;30.24;41.12;96629.59;5000609;28;20476;-59
2021/08/09 09:53:14;;;;;;;3.45;1.70;;;;;;;30.45;39.07;96630.47;5009618;28;20081;-56
2021/08/09 09:55:44;;;;;;;2.75;1.40;;;;;;;31.54;37.66;96625.75;5006584;28;20069;-58
2021/08/09 09:58:12;;;;;;;3.15;1.50;;;;;;;30.13;39.28;96636.84;5011786;28;20072;-59
2021/08/09 10:00:41;;;;;;;2.25;1.30;;;;;;;30.64;38.25;96647.16;5002568;28;20069;-53
2021/08/09 10:03:10;;;;;;;3.70;1.40;;;;;;;30.28;39.78;96633.41;5011086;28;20643;-59
2021/08/09 10:05:41;;;;;;;3.05;1.48;;;;;;;31.89;37.89;96616.69;5004035;28;20602;-57
2021/08/09 10:08:14;;;;;;;2.45;1.45;;;;;;;32.11;36.64;96612.81;5011416;28;20081;-56
2021/08/09 10:10:46;;;;;;;2.45;1.38;;;;;;;31.50;36.10;96616.47;5008975;28;20421;-58
2021/08/09 10:13:17;;;;;;;4.72;2.58;;;;;;;31.63;36.59;96613.19;5004752;28;20073;-56
2021/08/09 10:15:50;;;;;;;4.63;1.95;;;;;;;33.67;35.21;96616.75;5009574;28;20069;-54
2021/08/09 10:18:24;;;;;;;3.65;1.30;;;;;;;31.58;36.99;96618.63;5005969;28;20074;-56
2021/08/09 10:20:55;;;;;;;2.88;1.50;;;;;;;29.82;38.01;96622.28;5007644;28;20062;-56
2021/08/09 10:23:38;;;;;;;2.20;1.15;;;;;;;32.25;34.81;96613.03;5006456;28;20538;-56
2021/08/09 10:26:08;;;;;;;3.45;1.58;;;;;;;30.25;36.98;96623.06;5007285;28;20088;-55
2021/08/09 10:29:03;;;;;;;2.53;1.30;;;;;;;31.48;36.42;96607.75;5011596;28;20663;-56
2021/08/09 10:31:34;;;;;;;2.15;1.20;;;;;;;31.72;37.21;96604.44;5009459;28;20062;-58
2021/08/09 10:34:06;;;;;;;3.20;1.50;;;;;;;31.25;36.52;96611.84;4999779;28;20537;-60
2021/08/09 10:37:12;;;;;;;3.15;1.58;;;;;;;31.82;36.54;96604.41;4998807;28;20528;-58
2021/08/09 10:39:56;;;;;;;2.92;1.30;;;;;;;32.30;35.67;96608.34;4995583;28;20050;-57
2021/08/09 10:42:39;;;;;;;3.20;1.40;;;;;;;32.06;36.12;96610.09;4983776;28;20093;-58
2021/08/09 10:45:10;;;;;;;4.18;1.90;;;;;;;31.67;35.84;96605.28;4986308;28;20558;-56
2021/08/09 10:47:58;;;;;;;2.50;1.30;;;;;;;31.24;35.17;96606.66;4998953;28;20065;-59
2021/08/09 10:50:52;;;;;;;2.78;1.50;;;;;;;31.61;34.89;96599.00;5003998;28;20062;-59
2021/08/09 10:53:47;;;;;;;3.92;1.35;;;;;;;31.77;34.90;96596.25;4998895;28;20529;-60
2021/08/09 10:56:50;;;;;;;1.33;1.23;;;;;;;29.96;36.71;96603.59;4998635;28;20081;-60
2021/08/09 10:59:45;;;;;;;3.17;1.60;;;;;;;31.28;35.96;96594.09;4996214;28;20096;-58
2021/08/09 11:02:21;;;;;;;2.60;1.65;;;;;;;30.69;36.31;96598.13;4998926;28;20096;-58
2021/08/09 11:05:28;;;;;;;2.42;1.50;;;;;;;31.01;36.47;96594.41;5006000;28;20524;-60
2021/08/09 11:08:28;;;;;;;5.13;2.00;;;;;;;31.70;35.35;96591.09;5007814;28;20092;-58
2021/08/09 11:10:57;;;;;;;;;;;;;;;31.91;35.54;96589.16;5007343;28;21485;-59
2021/08/09 11:13:26;;;;;;;3.15;1.70;;;;;;;32.43;37.18;96590.59;5008426;28;19948;-59
2021/08/09 11:15:57;;;;;;;3.60;1.80;;;;;;;32.26;36.39;96592.84;5002362;28;20141;-55
2021/08/09 11:18:28;;;;;;;9.30;2.10;;;;;;;32.12;37.24;96589.88;4998583;28;20406;-59
2021/08/09 11:21:04;;;;;;;4.05;1.90;;;;;;;32.56;36.93;96592.69;4977677;28;20148;-59
2021/08/09 11:23:37;;;;;;;3.10;1.90;;;;;;;32.30;35.95;96594.72;4998335;28;20076;-56
2021/08/09 11:26:06;;;;;;;4.32;1.90;;;;;;;33.77;34.21;96594.75;5017393;28;20082;-58
2021/08/09 11:28:35;;;;;;;2.77;1.30;;;;;;;31.72;34.09;96597.06;5011926;28;20073;-57
2021/08/09 11:31:05;;;;;;;4.00;1.40;;;;;;;31.45;34.84;96591.94;5008314;28;20065;-55
2021/08/09 11:33:35;;;;;;;4.35;1.58;;;;;;;31.91;35.13;96581.78;5006231;28;20069;-57
2021/08/09 11:36:05;;;;;;;2.58;1.38;;;;;;;32.83;33.40;96583.25;5009733;28;20097;-57
2021/08/09 11:38:42;;;;;;;3.58;1.40;;;;;;;32.01;35.93;96574.66;5016975;28;20659;-59
2021/08/09 11:41:12;;;;;;;3.65;1.52;;;;;;;31.03;36.59;96586.75;5016469;28;20665;-59
2021/08/09 11:43:40;;;;;;;2.83;1.80;;;;;;;31.27;36.51;96593.28;5013980;28;20077;-57
2021/08/09 11:46:13;;;;;;;4.40;1.80;;;;;;;30.95;35.91;96583.50;5015551;28;20073;-59
2021/08/09 11:48:43;;;;;;;2.38;1.30;;;;;;;32.47;36.22;96575.28;5015783;28;20081;-57
2021/08/09 11:51:12;;;;;;;2.75;1.80;;;;;;;31.98;34.96;96572.50;5009709;28;20147;-53